Time;durP1;ratioP1;P1;durP2;ratioP2;P2;SDS_P1;SDS_P2;PMS_P1;PMS_P2;Temp;Humidity;BMP_temperature;BMP_pressure;BME280_temperature;BME280_humidity;BME280_pressure;Samples;Min_cycle;Max_cycle;Signal;HPM_P1;HPM_P2
2023/05/05 00:01:26;;;;;;;4.87;3.93;;;17.10;98.60;;;;;;5038002;28;20777;-71
2023/05/05 00:03:52;;;;;;;5.00;4.50;;;17.10;98.60;;;;;;5022570;28;20303;-72
2023/05/05 00:06:18;;;;;;;5.60;4.37;;;17.10;98.70;;;;;;5028286;28;20463;-70
2023/05/05 00:08:45;;;;;;;6.07;5.47;;;17.10;98.60;;;;;;5025586;28;20303;-70
2023/05/05 00:11:10;;;;;;;6.10;5.10;;;17.10;98.60;;;;;;5014077;28;20287;-71
2023/05/05 00:13:36;;;;;;;5.07;4.40;;;17.10;98.70;;;;;;5017170;28;20981;-72
2023/05/05 00:16:02;;;;;;;5.10;4.60;;;17.10;98.60;;;;;;5002558;28;20303;-69
2023/05/05 00:18:28;;;;;;;5.10;4.07;;;17.10;98.70;;;;;;5021232;28;20452;-71
2023/05/05 00:20:54;;;;;;;4.40;4.00;;;17.10;98.80;;;;;;5022816;28;20750;-69
2023/05/05 00:23:20;;;;;;;4.67;4.27;;;17.00;98.80;;;;;;5008723;28;20224;-70
2023/05/05 00:25:45;;;;;;;5.43;4.20;;;17.00;98.90;;;;;;5025977;28;20217;-70
2023/05/05 00:28:12;;;;;;;6.10;4.73;;;17.00;98.90;;;;;;5018268;28;20423;-73
2023/05/05 00:30:39;;;;;;;5.53;5.00;;;17.00;98.90;;;;;;5014149;28;20217;-70
2023/05/05 00:33:05;;;;;;;7.20;5.20;;;17.00;98.90;;;;;;5016937;28;20464;-70
2023/05/05 00:35:31;;;;;;;6.37;4.30;;;17.00;98.90;;;;;;5012700;28;20547;-71
2023/05/05 00:37:57;;;;;;;4.97;4.47;;;16.90;99.00;;;;;;5025384;28;20508;-70
2023/05/05 00:40:23;;;;;;;4.93;4.40;;;16.90;98.90;;;;;;5026145;28;20221;-71
2023/05/05 00:42:49;;;;;;;7.90;4.30;;;16.90;99.00;;;;;;5020953;28;20221;-71
2023/05/05 00:45:16;;;;;;;4.67;4.27;;;17.00;99.00;;;;;;5025618;28;20449;-71
2023/05/05 00:47:45;;;;;;;7.27;4.47;;;17.00;99.00;;;;;;5020700;28;20452;-70
2023/05/05 00:50:20;;;;;;;5.07;4.57;;;16.90;99.00;;;;;;4998170;28;20483;-70
2023/05/05 00:52:46;;;;;;;5.37;4.57;;;16.90;99.00;;;;;;5025215;28;20474;-70
2023/05/05 00:55:11;;;;;;;7.40;4.50;;;16.80;99.30;;;;;;5008274;28;20464;-71
2023/05/05 00:57:37;;;;;;;5.03;4.63;;;16.70;99.30;;;;;;5014673;28;20217;-70
2023/05/05 01:00:04;;;;;;;6.30;4.50;;;16.80;99.40;;;;;;5027072;28;20266;-70
2023/05/05 01:02:30;;;;;;;5.80;4.40;;;16.80;99.30;;;;;;5028963;28;20627;-71
2023/05/05 01:04:57;;;;;;;5.97;4.77;;;16.70;99.40;;;;;;5024756;28;20472;-70
2023/05/05 01:07:37;;;;;;;6.53;4.90;;;16.70;99.50;;;;;;5003812;28;20225;-70
2023/05/05 01:10:21;;;;;;;6.00;5.40;;;16.70;99.50;;;;;;5023456;28;20472;-71
2023/05/05 01:12:58;;;;;;;8.90;5.97;;;16.60;99.60;;;;;;5023409;28;20462;-71
2023/05/05 01:15:29;;;;;;;6.90;5.13;;;16.60;99.70;;;;;;5017253;28;20467;-71
2023/05/05 01:18:08;;;;;;;4.73;4.33;;;16.60;99.60;;;;;;5010269;28;20463;-71
2023/05/05 01:20:51;;;;;;;5.80;4.83;;;16.50;99.60;;;;;;5009351;28;20497;-71
2023/05/05 01:23:36;;;;;;;5.27;4.77;;;16.40;99.50;;;;;;5016890;28;20484;-71
2023/05/05 01:26:36;;;;;;;5.57;4.93;;;16.40;99.60;;;;;;4999429;28;20518;-71
2023/05/05 01:29:39;;;;;;;4.57;3.93;;;16.40;99.60;;;;;;5015559;28;20501;-71
2023/05/05 01:32:13;;;;;;;4.67;4.07;;;16.40;99.60;;;;;;5022726;28;20616;-71
2023/05/05 01:34:48;;;;;;;4.83;4.43;;;16.40;99.50;;;;;;5008599;28;20483;-71
2023/05/05 01:37:21;;;;;;;5.50;4.50;;;16.40;99.90;;;;;;5008877;28;20976;-71
2023/05/05 01:39:51;;;;;;;8.47;5.43;;;16.40;99.50;;;;;;5005126;28;20471;-70
2023/05/05 01:42:19;;;;;;;7.87;5.20;;;16.30;99.40;;;;;;5010751;28;20462;-71
2023/05/05 01:44:46;;;;;;;6.73;5.27;;;16.40;99.50;;;;;;5027030;28;20475;-71
2023/05/05 01:47:14;;;;;;;5.03;4.50;;;16.40;99.20;;;;;;5017267;28;20530;-71
2023/05/05 01:49:45;;;;;;;7.83;5.67;;;16.40;99.40;;;;;;5024406;28;21009;-70
2023/05/05 01:52:12;;;;;;;5.70;5.17;;;16.30;99.50;;;;;;5023714;28;20467;-70
2023/05/05 01:54:39;;;;;;;6.43;5.60;;;16.20;99.70;;;;;;5010186;28;20463;-71
2023/05/05 01:57:07;;;;;;;7.43;4.70;;;16.20;99.70;;;;;;5004461;28;20472;-71
2023/05/05 01:59:34;;;;;;;6.77;5.10;;;16.20;99.70;;;;;;5030977;28;20826;-72
2023/05/05 02:02:01;;;;;;;6.43;5.10;;;16.20;99.70;;;;;;5019966;28;20483;-71
2023/05/05 02:04:29;;;;;;;13.10;5.13;;;16.20;99.80;;;;;;5008214;28;20448;-71
2023/05/05 02:06:58;;;;;;;7.00;6.13;;;16.20;99.60;;;;;;5006480;28;20467;-71
2023/05/05 02:09:27;;;;;;;8.43;6.90;;;16.10;99.70;;;;;;5025835;28;20475;-71
2023/05/05 02:11:54;;;;;;;6.53;5.77;;;15.80;99.90;;;;;;5028363;28;20995;-71
2023/05/05 02:14:20;;;;;;;7.73;5.60;;;15.70;99.90;;;;;;5047080;28;20459;-72
2023/05/05 02:16:47;;;;;;;7.67;6.03;;;15.80;99.90;;;;;;5023106;28;20463;-72
2023/05/05 02:19:14;;;;;;;9.73;7.23;;;15.90;99.90;;;;;;4999668;28;20499;-71
2023/05/05 02:21:41;;;;;;;7.17;6.23;;;15.90;99.90;;;;;;5026219;28;21016;-71
2023/05/05 02:24:07;;;;;;;7.40;5.60;;;15.90;99.90;;;;;;5015565;28;20452;-71
2023/05/05 02:26:37;;;;;;;7.63;6.33;;;15.90;99.90;;;;;;5034843;28;20223;-71
2023/05/05 02:29:08;;;;;;;6.57;5.87;;;15.90;99.90;;;;;;5023265;28;20484;-71
2023/05/05 02:31:40;;;;;;;9.30;6.33;;;16.00;99.90;;;;;;5014128;28;21016;-70
2023/05/05 02:34:07;;;;;;;8.10;6.17;;;15.90;99.90;;;;;;5008987;28;20471;-70
2023/05/05 02:36:38;;;;;;;10.10;6.83;;;15.80;99.90;;;;;;5018833;28;20456;-70
2023/05/05 02:39:18;;;;;;;6.83;5.50;;;15.90;99.90;;;;;;5018436;28;20542;-70
2023/05/05 02:41:47;;;;;;;9.53;7.20;;;16.00;99.90;;;;;;5018450;28;20443;-71
2023/05/05 02:44:23;;;;;;;7.43;6.37;;;15.90;99.90;;;;;;5017321;28;20447;-71
2023/05/05 02:46:50;;;;;;;7.23;5.93;;;15.70;99.90;;;;;;5031696;28;20454;-70
2023/05/05 02:49:16;;;;;;;7.20;6.50;;;15.40;99.90;;;;;;5026831;28;20471;-71
2023/05/05 02:51:42;;;;;;;6.77;6.00;;;15.10;99.90;;;;;;5036562;28;20455;-71
2023/05/05 02:54:16;;;;;;;7.33;5.47;;;15.00;99.90;;;;;;5012489;28;20530;-70
2023/05/05 02:56:50;;;;;;;6.37;5.73;;;15.00;99.90;;;;;;5019809;28;20563;-71
2023/05/05 02:59:39;;;;;;;7.07;5.77;;;15.20;99.90;;;;;;5017557;28;20209;-71
2023/05/05 03:02:26;;;;;;;8.10;6.30;;;15.40;99.90;;;;;;5018187;28;20464;-70
2023/05/05 03:04:58;;;;;;;10.33;6.77;;;15.50;99.90;;;;;;5015021;28;20537;-72
2023/05/05 03:07:32;;;;;;;6.60;6.00;;;15.50;99.90;;;;;;5028849;28;20468;-71
2023/05/05 03:10:29;;;;;;;7.10;5.83;;;15.50;99.90;;;;;;5009472;28;20469;-71
2023/05/05 03:13:00;;;;;;;6.47;5.80;;;15.60;99.90;;;;;;5021216;28;20459;-71
2023/05/05 03:15:42;;;;;;;7.27;6.43;;;15.60;99.90;;;;;;5006158;28;20455;-71
2023/05/05 03:18:10;;;;;;;7.63;5.20;;;15.50;99.90;;;;;;5026753;28;20562;-70
2023/05/05 03:20:40;;;;;;;8.57;6.63;;;15.50;99.90;;;;;;5022998;28;20452;-71
2023/05/05 03:23:09;;;;;;;6.23;5.63;;;15.40;99.90;;;;;;5002113;28;20489;-71
2023/05/05 03:25:49;;;;;;;6.97;5.80;;;15.50;99.90;;;;;;5023616;28;21019;-70
2023/05/05 03:28:40;;;;;;;5.40;4.90;;;15.50;99.90;;;;;;5027058;28;20482;-71
2023/05/05 03:31:14;;;;;;;6.53;5.93;;;15.50;99.90;;;;;;5016484;28;20449;-70
2023/05/05 03:33:40;;;;;;;8.50;5.77;;;15.60;99.90;;;;;;5022913;28;20464;-71
2023/05/05 03:36:06;;;;;;;6.63;5.97;;;15.60;99.90;;;;;;5022089;28;20217;-71
2023/05/05 03:38:32;;;;;;;5.77;4.93;;;15.70;99.90;;;;;;5015450;28;20274;-70
2023/05/05 03:41:01;;;;;;;7.00;5.87;;;15.60;99.90;;;;;;5011615;28;20488;-72
2023/05/05 03:43:26;;;;;;;7.10;6.40;;;15.70;99.90;;;;;;5015222;28;20236;-71
2023/05/05 03:45:52;;;;;;;6.23;5.63;;;15.60;99.90;;;;;;5015777;28;20474;-71
2023/05/05 03:48:18;;;;;;;7.40;5.80;;;15.60;99.90;;;;;;5024301;28;20615;-71
2023/05/05 03:50:45;;;;;;;8.80;5.70;;;15.50;99.90;;;;;;5014274;28;20522;-70
2023/05/05 03:53:12;;;;;;;10.67;5.57;;;15.50;99.90;;;;;;5009774;28;20465;-72
2023/05/05 03:55:38;;;;;;;6.37;5.70;;;15.50;99.90;;;;;;5011799;28;20468;-71
2023/05/05 03:58:04;;;;;;;6.80;6.10;;;15.50;99.90;;;;;;5017508;28;20461;-71
2023/05/05 04:00:29;;;;;;;6.80;5.83;;;15.50;99.90;;;;;;5022143;28;20237;-71
2023/05/05 04:02:55;;;;;;;6.73;5.67;;;15.50;99.90;;;;;;5011904;28;20228;-71
2023/05/05 04:05:23;;;;;;;8.27;5.20;;;15.60;99.90;;;;;;5000173;28;20440;-71
2023/05/05 04:07:48;;;;;;;6.57;5.97;;;15.60;99.90;;;;;;4995136;28;20456;-70
2023/05/05 04:10:14;;;;;;;8.43;6.53;;;15.60;99.90;;;;;;4999923;28;20703;-71
2023/05/05 04:12:40;;;;;;;5.73;5.20;;;15.60;99.90;;;;;;5004886;28;20226;-70
2023/05/05 04:15:06;;;;;;;14.83;6.60;;;15.60;99.90;;;;;;4999842;28;20245;-69
2023/05/05 04:17:33;;;;;;;7.20;6.00;;;15.50;99.90;;;;;;5005313;28;20213;-71
2023/05/05 04:19:59;;;;;;;7.10;6.07;;;15.50;99.90;;;;;;5026394;28;20455;-70
2023/05/05 04:22:24;;;;;;;6.80;6.03;;;15.50;99.90;;;;;;5024605;28;20872;-71
2023/05/05 04:24:50;;;;;;;8.13;6.00;;;15.50;99.90;;;;;;5016288;28;20228;-71
2023/05/05 04:27:17;;;;;;;6.80;5.87;;;15.50;99.90;;;;;;5024445;28;20216;-69
2023/05/05 04:29:42;;;;;;;7.77;6.40;;;15.50;99.90;;;;;;5029546;28;20507;-71
2023/05/05 04:32:08;;;;;;;8.33;6.80;;;15.50;99.90;;;;;;5010404;28;20230;-71
2023/05/05 04:34:34;;;;;;;8.20;7.27;;;15.50;99.90;;;;;;5017496;28;20591;-71
2023/05/05 04:37:00;;;;;;;6.90;6.17;;;15.50;99.90;;;;;;5009851;28;20290;-70
2023/05/05 04:39:26;;;;;;;6.90;6.20;;;15.40;99.90;;;;;;5032313;28;20220;-71
2023/05/05 04:41:51;;;;;;;7.20;6.20;;;15.40;99.90;;;;;;5006935;28;20460;-71
2023/05/05 04:44:17;;;;;;;8.60;6.80;;;15.40;99.90;;;;;;5021720;28;20219;-70
2023/05/05 04:46:43;;;;;;;7.40;6.40;;;15.40;99.90;;;;;;5020296;28;20486;-71
2023/05/05 04:49:09;;;;;;;7.97;6.63;;;15.40;99.90;;;;;;5017710;28;21016;-70
2023/05/05 04:51:35;;;;;;;9.90;7.07;;;15.40;99.90;;;;;;5020952;28;20208;-71
2023/05/05 04:54:01;;;;;;;6.93;6.17;;;15.40;99.90;;;;;;5040857;28;20213;-70
2023/05/05 04:56:29;;;;;;;6.37;5.20;;;15.40;99.90;;;;;;5043867;28;20225;-70
2023/05/05 04:58:54;;;;;;;7.50;6.43;;;15.40;99.90;;;;;;5022550;28;20217;-68
2023/05/05 05:01:20;;;;;;;6.97;5.60;;;15.40;99.90;;;;;;5045427;28;20457;-70
2023/05/05 05:03:46;;;;;;;10.13;6.80;;;15.50;99.90;;;;;;5032417;28;20232;-69
2023/05/05 05:06:12;;;;;;;8.50;6.43;;;15.50;99.90;;;;;;5035228;28;20237;-71
2023/05/05 05:08:37;;;;;;;6.63;5.77;;;15.50;99.90;;;;;;5043517;28;20217;-71
2023/05/05 05:11:03;;;;;;;6.60;5.97;;;15.50;99.90;;;;;;5026953;28;20278;-72
2023/05/05 05:13:29;;;;;;;8.30;5.93;;;15.50;99.90;;;;;;5029473;28;20303;-71
2023/05/05 05:15:54;;;;;;;7.00;6.07;;;15.50;99.90;;;;;;5034463;28;20279;-72
2023/05/05 05:18:20;;;;;;;8.60;6.10;;;15.50;99.90;;;;;;5028962;28;20756;-71
2023/05/05 05:20:47;;;;;;;6.10;5.50;;;15.50;99.90;;;;;;5029363;28;20216;-70
2023/05/05 05:23:13;;;;;;;10.17;5.77;;;15.50;99.90;;;;;;5047784;28;21014;-71
2023/05/05 05:25:42;;;;;;;7.27;6.40;;;15.50;99.90;;;;;;5043743;28;20462;-71
2023/05/05 05:28:07;;;;;;;5.80;5.10;;;15.50;99.90;;;;;;5027998;28;20603;-70
2023/05/05 05:30:34;;;;;;;8.27;6.07;;;15.50;99.90;;;;;;5033054;28;20220;-71
2023/05/05 05:33:01;;;;;;;7.13;5.83;;;15.50;99.90;;;;;;5029490;28;20522;-71
2023/05/05 05:35:27;;;;;;;6.40;5.37;;;15.50;99.90;;;;;;5018632;28;20447;-71
2023/05/05 05:37:53;;;;;;;5.47;4.97;;;15.50;99.90;;;;;;5009454;28;20453;-71
2023/05/05 05:40:19;;;;;;;7.83;5.83;;;15.50;99.90;;;;;;5014762;28;20220;-71
2023/05/05 05:42:45;;;;;;;7.30;5.60;;;15.60;99.90;;;;;;5010968;28;20317;-69
2023/05/05 05:45:11;;;;;;;5.57;5.00;;;15.60;99.90;;;;;;5033666;28;20988;-71
2023/05/05 05:47:38;;;;;;;5.83;5.20;;;15.60;99.90;;;;;;5018015;28;20526;-71
2023/05/05 05:50:05;;;;;;;8.23;7.43;;;15.60;99.90;;;;;;5032991;28;20550;-71
2023/05/05 05:52:32;;;;;;;5.20;4.70;;;15.60;99.90;;;;;;5008300;28;20710;-71
2023/05/05 05:54:58;;;;;;;4.77;4.37;;;15.70;99.90;;;;;;5010523;28;20468;-70
2023/05/05 05:57:24;;;;;;;5.40;4.90;;;15.70;99.90;;;;;;5026587;28;20569;-71
2023/05/05 05:59:50;;;;;;;5.63;5.13;;;15.70;99.90;;;;;;5037525;28;20291;-71
2023/05/05 06:02:16;;;;;;;7.17;5.10;;;15.80;99.90;;;;;;5016917;28;20981;-71
2023/05/05 06:04:42;;;;;;;5.63;4.83;;;15.90;99.90;;;;;;5026572;28;21001;-71
2023/05/05 06:07:09;;;;;;;5.30;4.20;;;15.90;99.90;;;;;;5008907;28;20484;-70
2023/05/05 06:09:34;;;;;;;6.47;4.93;;;16.00;99.90;;;;;;5020385;28;20458;-71
2023/05/05 06:12:02;;;;;;;4.97;4.50;;;16.00;99.90;;;;;;5020724;28;20225;-69
2023/05/05 06:14:28;;;;;;;5.40;4.90;;;16.00;99.90;;;;;;5010220;28;20221;-71
2023/05/05 06:16:54;;;;;;;5.23;4.73;;;16.10;99.90;;;;;;5023090;28;20458;-72
2023/05/05 06:19:21;;;;;;;6.20;4.60;;;16.10;99.90;;;;;;5026006;28;20887;-71
2023/05/05 06:21:47;;;;;;;6.07;4.23;;;16.10;99.90;;;;;;5026933;28;20986;-72
2023/05/05 06:24:13;;;;;;;5.60;5.10;;;16.20;99.90;;;;;;5026018;28;20486;-70
2023/05/05 06:26:40;;;;;;;5.33;4.83;;;16.30;99.90;;;;;;5023507;28;20248;-71
2023/05/05 06:29:06;;;;;;;6.43;4.80;;;16.30;99.90;;;;;;5029933;28;20464;-71
2023/05/05 06:31:31;;;;;;;4.83;4.33;;;16.40;99.90;;;;;;5022005;28;20452;-72
2023/05/05 06:33:57;;;;;;;5.60;4.90;;;16.40;99.90;;;;;;5023963;28;20226;-71
2023/05/05 06:36:23;;;;;;;5.40;4.77;;;16.50;99.90;;;;;;5033283;28;20212;-71
2023/05/05 06:38:49;;;;;;;5.80;4.93;;;16.50;99.90;;;;;;5023475;28;20224;-70
2023/05/05 06:41:15;;;;;;;8.40;5.67;;;16.60;99.90;;;;;;5034905;28;20216;-70
2023/05/05 06:43:41;;;;;;;6.40;5.00;;;16.70;99.90;;;;;;5031333;28;20460;-71
2023/05/05 06:46:10;;;;;;;5.47;4.70;;;16.80;99.90;;;;;;5039170;28;20458;-70
2023/05/05 06:48:36;;;;;;;6.20;5.60;;;16.90;99.90;;;;;;5020150;28;20476;-72
2023/05/05 06:51:02;;;;;;;6.63;5.00;;;17.00;99.90;;;;;;5038877;28;20237;-70
2023/05/05 06:53:28;;;;;;;5.20;4.70;;;17.10;99.90;;;;;;5029416;28;20286;-71
2023/05/05 06:55:54;;;;;;;5.20;4.70;;;17.30;99.90;;;;;;5033143;28;20448;-72
2023/05/05 06:58:20;;;;;;;6.83;4.33;;;17.40;99.90;;;;;;5023907;28;20237;-71
2023/05/05 07:00:46;;;;;;;5.37;4.63;;;17.50;99.90;;;;;;5019694;28;20281;-71
2023/05/05 07:03:12;;;;;;;5.47;5.00;;;17.60;99.90;;;;;;5012098;28;20855;-70
2023/05/05 07:05:37;;;;;;;4.40;4.00;;;17.70;99.90;;;;;;5046984;28;20264;-72
2023/05/05 07:08:03;;;;;;;11.40;4.70;;;17.80;99.90;;;;;;5034113;28;20460;-71
2023/05/05 07:10:30;;;;;;;5.33;4.90;;;18.00;99.90;;;;;;5036022;28;20584;-71
2023/05/05 07:12:56;;;;;;;4.60;4.20;;;18.20;99.90;;;;;;5031982;28;20225;-71
2023/05/05 07:15:22;;;;;;;5.23;4.70;;;18.30;99.90;;;;;;5034141;28;20441;-71
2023/05/05 07:17:48;;;;;;;5.20;4.70;;;18.40;99.90;;;;;;5039806;28;20452;-71
2023/05/05 07:20:15;;;;;;;7.40;4.33;;;18.50;99.90;;;;;;5033995;28;20262;-70
2023/05/05 07:22:40;;;;;;;5.10;4.60;;;18.50;99.90;;;;;;5027502;28;20476;-71
2023/05/05 07:25:07;;;;;;;4.77;4.37;;;18.60;99.90;;;;;;5031175;28;20505;-71
2023/05/05 07:27:33;;;;;;;7.17;4.27;;;18.60;99.90;;;;;;5011878;28;20214;-71
2023/05/05 07:29:58;;;;;;;7.50;5.00;;;18.70;99.90;;;;;;5018382;28;20998;-71
2023/05/05 07:32:25;;;;;;;10.57;5.70;;;18.80;99.90;;;;;;5036188;28;20456;-71
2023/05/05 07:34:50;;;;;;;5.60;5.07;;;18.80;99.90;;;;;;5017172;28;20227;-70
2023/05/05 07:37:16;;;;;;;5.80;4.80;;;18.90;99.90;;;;;;5022965;28;20448;-70
2023/05/05 07:39:42;;;;;;;6.83;5.43;;;19.10;99.90;;;;;;5020232;28;20224;-71
2023/05/05 07:42:08;;;;;;;8.97;4.57;;;19.10;99.90;;;;;;5039287;28;20230;-72
2023/05/05 07:44:33;;;;;;;5.70;4.40;;;19.20;99.90;;;;;;5028481;28;20228;-72
2023/05/05 07:46:59;;;;;;;7.30;5.00;;;19.20;99.90;;;;;;5030790;28;20453;-70
2023/05/05 07:49:25;;;;;;;5.03;4.37;;;19.20;99.90;;;;;;5013715;28;20220;-72
2023/05/05 07:51:51;;;;;;;5.23;4.73;;;19.30;99.90;;;;;;5032005;28;20225;-72
2023/05/05 07:54:17;;;;;;;4.50;4.10;;;19.50;99.90;;;;;;5023703;28;20478;-71
2023/05/05 07:56:43;;;;;;;4.80;4.40;;;19.50;99.90;;;;;;5030674;28;20470;-71
2023/05/05 07:59:10;;;;;;;4.90;4.50;;;19.60;99.90;;;;;;5039041;28;20452;-71
2023/05/05 08:01:36;;;;;;;4.73;3.97;;;19.80;99.90;;;;;;5027749;28;20217;-71
2023/05/05 08:04:01;;;;;;;5.13;4.60;;;19.90;99.90;;;;;;5037630;28;20452;-71
2023/05/05 08:06:27;;;;;;;4.63;4.23;;;20.10;99.90;;;;;;5024810;28;20455;-71
2023/05/05 08:08:54;;;;;;;5.40;4.20;;;20.20;99.90;;;;;;5025551;28;20226;-70
2023/05/05 08:11:20;;;;;;;5.70;4.20;;;20.20;99.90;;;;;;5035570;28;20209;-70
2023/05/05 08:13:46;;;;;;;5.00;4.50;;;20.30;99.90;;;;;;5032104;28;20451;-71
2023/05/05 08:16:12;;;;;;;5.50;4.43;;;20.30;99.90;;;;;;5020544;28;20469;-71
2023/05/05 08:18:38;;;;;;;7.90;4.30;;;20.40;99.90;;;;;;5032054;28;20312;-71
2023/05/05 08:21:05;;;;;;;4.13;3.83;;;20.60;99.90;;;;;;5019034;28;20699;-71
2023/05/05 08:23:32;;;;;;;5.60;4.30;;;20.70;99.90;;;;;;5014849;28;20248;-72
2023/05/05 08:25:57;;;;;;;7.80;4.47;;;20.70;99.90;;;;;;5028541;28;20464;-72
2023/05/05 08:28:23;;;;;;;3.93;3.60;;;20.80;99.90;;;;;;5030119;28;20956;-72
2023/05/05 08:30:49;;;;;;;7.13;4.10;;;21.10;99.90;;;;;;5016553;28;20226;-71
2023/05/05 08:33:15;;;;;;;4.17;3.60;;;21.20;99.90;;;;;;5028519;28;20224;-72
2023/05/05 08:35:44;;;;;;;3.37;3.13;;;21.30;99.90;;;;;;5006691;28;20453;-72
2023/05/05 08:38:10;;;;;;;5.10;4.70;;;21.40;99.90;;;;;;5027998;28;20228;-72
2023/05/05 08:40:38;;;;;;;4.00;3.70;;;21.50;99.90;;;;;;5028630;28;20578;-71
2023/05/05 08:43:04;;;;;;;4.00;3.43;;;21.70;99.90;;;;;;5036343;28;20490;-70
2023/05/05 08:45:30;;;;;;;4.97;2.97;;;21.90;99.90;;;;;;5017972;28;20466;-71
2023/05/05 08:48:00;;;;;;;3.50;3.20;;;22.00;99.90;;;;;;5014895;28;20824;-71
2023/05/05 08:50:27;;;;;;;2.87;2.60;;;22.00;99.90;;;;;;5027268;28;20827;-71
2023/05/05 08:53:07;;;;;;;3.90;2.90;;;22.00;99.90;;;;;;5020460;28;20867;-72
2023/05/05 08:55:34;;;;;;;2.83;2.60;;;22.20;99.90;;;;;;5026140;28;20512;-72
2023/05/05 08:58:04;;;;;;;3.80;2.33;;;22.10;99.90;;;;;;5030485;28;20470;-71
2023/05/05 09:00:31;;;;;;;2.00;1.90;;;22.20;99.90;;;;;;5027515;28;20941;-72
2023/05/05 09:02:57;;;;;;;2.00;1.90;;;22.30;99.90;;;;;;5018757;28;20467;-72
2023/05/05 09:05:23;;;;;;;1.83;1.73;;;22.50;99.90;;;;;;5030810;28;20968;-72
2023/05/05 09:07:50;;;;;;;2.10;1.87;;;22.40;99.90;;;;;;5031337;28;20482;-71
2023/05/05 09:10:16;;;;;;;7.20;1.73;;;22.50;99.90;;;;;;5013738;28;21193;-72
2023/05/05 09:12:42;;;;;;;1.60;1.50;;;22.60;99.90;;;;;;5034870;28;20462;-71
2023/05/05 09:15:09;;;;;;;1.37;1.13;;;22.80;99.90;;;;;;5014173;28;20477;-72
2023/05/05 09:17:35;;;;;;;1.90;1.30;;;22.90;99.90;;;;;;5030608;28;20550;-71
2023/05/05 09:20:03;;;;;;;3.20;1.47;;;23.00;99.90;;;;;;5024426;28;20468;-70
2023/05/05 09:22:38;;;;;;;3.47;1.60;;;23.20;99.90;;;;;;5027592;28;20466;-71
2023/05/05 09:25:05;;;;;;;1.40;1.30;;;23.40;99.90;;;;;;5019940;28;20454;-71
2023/05/05 09:27:38;;;;;;;1.37;1.27;;;23.60;99.90;;;;;;5017171;28;20470;-71
2023/05/05 09:30:13;;;;;;;3.37;1.70;;;23.50;99.90;;;;;;5021493;28;20472;-72
2023/05/05 09:32:50;;;;;;;1.30;1.20;;;23.50;99.90;;;;;;5012022;28;20715;-71
2023/05/05 09:35:17;;;;;;;1.40;1.30;;;23.50;99.90;;;;;;5029927;28;20447;-71
2023/05/05 09:37:44;;;;;;;1.17;1.07;;;23.60;99.90;;;;;;5015887;28;21016;-72
2023/05/05 09:40:11;;;;;;;2.30;1.40;;;23.80;99.90;;;;;;5029924;28;20485;-71
2023/05/05 09:42:38;;;;;;;1.57;1.47;;;23.90;99.90;;;;;;5028417;28;20451;-71
2023/05/05 09:45:24;;;;;;;1.80;1.30;;;23.90;99.90;;;;;;5025518;28;20474;-71
2023/05/05 09:47:50;;;;;;;1.50;1.40;;;24.10;99.90;;;;;;5027834;28;20543;-72
2023/05/05 09:50:19;;;;;;;1.23;1.13;;;24.10;99.80;;;;;;5035387;28;20573;-71
2023/05/05 09:52:55;;;;;;;1.30;1.20;;;24.20;99.50;;;;;;5026338;28;20231;-71
2023/05/05 09:55:22;;;;;;;2.70;1.30;;;24.30;97.80;;;;;;5019525;28;20556;-71
2023/05/05 09:57:47;;;;;;;2.10;1.13;;;24.30;98.60;;;;;;5005068;28;20527;-71
2023/05/05 10:00:13;;;;;;;1.10;1.00;;;24.30;98.60;;;;;;5024844;28;20604;-72
2023/05/05 10:02:39;;;;;;;1.83;1.27;;;24.50;97.80;;;;;;5012142;28;20228;-71
2023/05/05 10:05:11;;;;;;;1.33;1.23;;;24.40;97.20;;;;;;5034564;28;20460;-72
2023/05/05 10:07:38;;;;;;;1.80;1.30;;;24.60;98.10;;;;;;5020293;28;20227;-72
2023/05/05 10:10:06;;;;;;;1.47;1.37;;;24.80;96.90;;;;;;5035193;28;20994;-72
2023/05/05 10:12:36;;;;;;;1.60;1.50;;;24.80;96.40;;;;;;5024344;28;20609;-72
2023/05/05 10:15:05;;;;;;;1.70;1.60;;;24.80;96.50;;;;;;5021944;28;20476;-72
2023/05/05 10:17:34;;;;;;;1.80;1.70;;;25.00;96.60;;;;;;5031673;28;20871;-71
2023/05/05 10:20:02;;;;;;;1.70;1.60;;;25.30;96.70;;;;;;5023725;28;20516;-70
2023/05/05 10:22:33;;;;;;;2.37;1.80;;;25.30;96.60;;;;;;5024633;28;20830;-72
2023/05/05 10:25:08;;;;;;;2.50;1.60;;;25.30;97.20;;;;;;5011575;28;20467;-71
2023/05/05 10:27:50;;;;;;;2.00;1.70;;;25.30;96.90;;;;;;5013900;28;20953;-72
2023/05/05 10:30:23;;;;;;;2.20;1.63;;;25.30;96.70;;;;;;5032086;28;20611;-72
2023/05/05 10:32:49;;;;;;;1.73;1.63;;;25.30;97.00;;;;;;5033372;28;20470;-70
2023/05/05 10:35:20;;;;;;;1.93;1.83;;;25.50;97.30;;;;;;5027276;28;20462;-72
2023/05/05 10:37:46;;;;;;;3.27;1.50;;;25.50;97.00;;;;;;5010422;28;20467;-73
2023/05/05 10:40:13;;;;;;;1.97;1.70;;;25.60;96.40;;;;;;5016452;28;20591;-73
2023/05/05 10:42:39;;;;;;;1.90;1.80;;;25.50;96.70;;;;;;5032492;28;20549;-72
2023/05/05 10:45:06;;;;;;;2.00;1.80;;;25.70;96.80;;;;;;5011947;28;21011;-72
2023/05/05 10:47:33;;;;;;;2.27;2.10;;;25.80;96.50;;;;;;5020358;28;20279;-72
2023/05/05 10:50:02;;;;;;;2.00;1.80;;;25.80;96.50;;;;;;5035487;28;20475;-72
2023/05/05 10:52:52;;;;;;;1.93;1.83;;;25.70;96.60;;;;;;5018616;28;20466;-71
2023/05/05 10:55:34;;;;;;;1.80;1.70;;;25.70;96.40;;;;;;5033884;28;20447;-71
2023/05/05 10:58:00;;;;;;;2.20;1.80;;;25.60;96.20;;;;;;5015194;28;20461;-69
2023/05/05 11:00:38;;;;;;;3.33;1.67;;;25.60;96.00;;;;;;5026858;28;20462;-72
2023/05/05 11:03:20;;;;;;;2.97;2.30;;;25.70;95.70;;;;;;5004912;28;20707;-74
2023/05/05 11:06:04;;;;;;;3.40;2.33;;;25.60;96.80;;;;;;5029908;28;20525;-72
2023/05/05 11:08:31;;;;;;;1.93;1.83;;;25.50;96.70;;;;;;5012045;28;20478;-73
2023/05/05 11:10:58;;;;;;;1.97;1.43;;;25.40;96.30;;;;;;5007234;28;20472;-73
2023/05/05 11:13:24;;;;;;;5.40;1.60;;;25.30;96.10;;;;;;5039448;28;20463;-72
2023/05/05 11:15:54;;;;;;;1.60;1.50;;;25.30;95.60;;;;;;5020873;28;20473;-72
2023/05/05 11:18:37;;;;;;;3.60;1.87;;;25.30;96.10;;;;;;5030135;28;20502;-71
2023/05/05 11:21:14;;;;;;;3.53;2.17;;;25.10;95.10;;;;;;5035850;28;20463;-72
2023/05/05 11:23:48;;;;;;;1.80;1.70;;;25.20;96.50;;;;;;5036637;28;20474;-72
2023/05/05 11:26:15;;;;;;;2.73;1.70;;;25.40;95.40;;;;;;5019946;28;20436;-72
2023/05/05 11:28:56;;;;;;;1.60;1.50;;;25.60;94.10;;;;;;5033256;28;20557;-72
2023/05/05 11:31:22;;;;;;;1.40;1.30;;;25.70;94.60;;;;;;5035471;28;20466;-72
2023/05/05 11:33:48;;;;;;;1.40;1.30;;;26.00;94.50;;;;;;5023032;28;20464;-70
2023/05/05 11:36:16;;;;;;;1.97;1.87;;;26.20;93.70;;;;;;5028730;28;20313;-72
2023/05/05 11:38:54;;;;;;;3.37;2.17;;;26.30;92.80;;;;;;5037042;28;20273;-71
2023/05/05 11:41:32;;;;;;;1.50;1.40;;;26.20;93.00;;;;;;5037810;28;20466;-73
2023/05/05 11:44:16;;;;;;;1.50;1.40;;;26.00;92.30;;;;;;5031697;28;20592;-72
2023/05/05 11:46:51;;;;;;;1.30;1.20;;;26.10;92.60;;;;;;5017864;28;20459;-71
2023/05/05 11:49:36;;;;;;;2.50;1.47;;;26.20;92.80;;;;;;5030692;28;20312;-71
2023/05/05 11:52:07;;;;;;;1.07;1.07;;;26.10;92.10;;;;;;5028502;28;21038;-71
2023/05/05 11:54:39;;;;;;;5.50;1.40;;;26.20;92.70;;;;;;5030386;28;20486;-73
2023/05/05 11:57:06;;;;;;;1.50;1.20;;;26.00;92.60;;;;;;5024020;28;20495;-72
2023/05/05 11:59:47;;;;;;;1.63;1.20;;;26.20;91.80;;;;;;5022476;28;20842;-71
2023/05/05 12:02:19;;;;;;;1.43;1.33;;;26.30;91.40;;;;;;5029319;28;20503;-72
2023/05/05 12:04:46;;;;;;;1.97;0.93;;;26.20;91.80;;;;;;5017537;28;21068;-72
2023/05/05 12:07:15;;;;;;;1.77;1.00;;;26.50;92.00;;;;;;5029850;28;20483;-73
2023/05/05 12:09:44;;;;;;;1.05;0.98;;;26.70;91.40;;;;;;5028372;28;20234;-72
2023/05/05 12:12:10;;;;;;;0.97;0.97;;;26.60;88.60;;;;;;5028776;28;20219;-72
2023/05/05 12:14:43;;;;;;;1.23;1.13;;;26.40;88.10;;;;;;5022098;28;20248;-72
2023/05/05 12:17:08;;;;;;;0.90;0.90;;;26.20;87.00;;;;;;5030653;28;20326;-72
2023/05/05 12:19:35;;;;;;;1.50;1.10;;;26.20;90.20;;;;;;5013676;28;20547;-73
2023/05/05 12:22:01;;;;;;;1.97;1.03;;;26.40;90.00;;;;;;5017947;28;20227;-71
2023/05/05 12:24:29;;;;;;;1.30;1.20;;;26.40;89.90;;;;;;5016465;28;20451;-72
2023/05/05 12:27:05;;;;;;;5.67;1.40;;;26.20;90.30;;;;;;5037583;28;20520;-69
2023/05/05 12:29:31;;;;;;;1.03;1.03;;;26.00;90.70;;;;;;5010273;28;20464;-72
2023/05/05 12:31:56;;;;;;;2.03;1.13;;;26.00;90.90;;;;;;5028599;28;20446;-72
2023/05/05 12:34:22;;;;;;;1.53;1.27;;;26.00;90.80;;;;;;5015189;28;20328;-72
2023/05/05 12:36:49;;;;;;;1.10;1.10;;;26.10;90.50;;;;;;5027690;28;20593;-71
2023/05/05 12:39:14;;;;;;;1.07;0.97;;;26.20;90.30;;;;;;5022660;28;20447;-71
2023/05/05 12:41:40;;;;;;;1.20;1.10;;;26.20;90.00;;;;;;5024969;28;21028;-72
2023/05/05 12:44:06;;;;;;;1.33;1.10;;;26.40;90.30;;;;;;5028260;28;20224;-73
2023/05/05 12:46:44;;;;;;;2.50;1.20;;;26.50;88.60;;;;;;5041122;28;20307;-72
2023/05/05 12:49:10;;;;;;;1.33;1.00;;;26.50;86.80;;;;;;5025766;28;20250;-72
2023/05/05 12:51:36;;;;;;;1.23;1.13;;;26.50;89.10;;;;;;5036519;28;20239;-71
2023/05/05 12:54:09;;;;;;;1.40;1.30;;;26.40;89.10;;;;;;5016724;28;20596;-72